Time;durP1;ratioP1;P1;durP2;ratioP2;P2;SDS_P1;SDS_P2;PMS_P1;PMS_P2;Temp;Humidity;BMP_temperature;BMP_pressure;BME280_temperature;BME280_humidity;BME280_pressure;Samples;Min_cycle;Max_cycle;Signal;HPM_P1;HPM_P2
2023/08/05 00:00:22;;;;;;;5.60;3.67;;;16.70;57.70;;;;;;5032916;28;46467;-72
2023/08/05 00:02:47;;;;;;;8.03;3.87;;;16.70;57.20;;;;;;5032318;28;46459;-72
2023/08/05 00:05:13;;;;;;;5.67;3.43;;;16.70;57.20;;;;;;5034005;28;46974;-71
2023/08/05 00:07:38;;;;;;;5.90;3.67;;;16.70;57.40;;;;;;5033120;28;46376;-70
2023/08/05 00:10:04;;;;;;;5.83;3.47;;;16.70;57.70;;;;;;5034827;28;46521;-71
2023/08/05 00:12:30;;;;;;;6.17;3.70;;;16.70;57.70;;;;;;5033282;28;46380;-71
2023/08/05 00:14:56;;;;;;;6.67;3.67;;;16.70;57.70;;;;;;5035026;28;46257;-70
2023/08/05 00:17:21;;;;;;;8.00;4.47;;;16.70;57.80;;;;;;5035257;28;46584;-71
2023/08/05 00:19:47;;;;;;;4.77;3.33;;;16.70;57.80;;;;;;5032178;28;46291;-71
2023/08/05 00:22:13;;;;;;;9.83;3.57;;;16.70;57.80;;;;;;5035886;28;46466;-71
2023/08/05 00:24:39;;;;;;;5.80;3.67;;;16.80;57.80;;;;;;5033091;28;46572;-70
2023/08/05 00:27:06;;;;;;;7.10;3.80;;;16.80;57.90;;;;;;5035090;28;46535;-72
2023/08/05 00:29:31;;;;;;;4.90;3.53;;;16.80;57.90;;;;;;5033049;28;47361;-72
2023/08/05 00:31:58;;;;;;;7.80;3.70;;;16.70;57.80;;;;;;5034774;28;46498;-72
2023/08/05 00:34:24;;;;;;;7.53;3.80;;;16.60;57.70;;;;;;5033440;28;46445;-72
2023/08/05 00:36:49;;;;;;;6.20;3.30;;;16.60;57.70;;;;;;5035559;28;46594;-71
2023/08/05 00:39:15;;;;;;;8.87;3.90;;;16.60;58.40;;;;;;5037610;28;48137;-72
2023/08/05 00:41:41;;;;;;;6.40;4.00;;;16.60;58.50;;;;;;5033311;28;46409;-72
2023/08/05 00:44:06;;;;;;;7.30;4.03;;;16.60;58.30;;;;;;5035245;28;46424;-71
2023/08/05 00:46:32;;;;;;;14.03;3.90;;;16.60;58.10;;;;;;5034812;28;46538;-72
2023/08/05 00:48:58;;;;;;;6.30;3.73;;;16.60;57.70;;;;;;5034202;28;46727;-71
2023/08/05 00:51:23;;;;;;;8.87;3.53;;;16.60;58.20;;;;;;5034218;28;46391;-71
2023/08/05 00:53:50;;;;;;;5.13;3.43;;;16.60;57.90;;;;;;5025356;28;46457;-72
2023/08/05 00:56:16;;;;;;;5.63;3.60;;;16.60;58.50;;;;;;5035228;28;46517;-73
2023/08/05 00:58:45;;;;;;;7.47;3.87;;;16.50;59.80;;;;;;5032635;28;46989;-72
2023/08/05 01:01:11;;;;;;;5.60;3.87;;;16.50;58.80;;;;;;5033039;28;46755;-72
2023/08/05 01:03:37;;;;;;;8.97;4.73;;;16.40;59.20;;;;;;5033546;28;46464;-73
2023/08/05 01:06:05;;;;;;;8.33;5.07;;;16.40;59.50;;;;;;5032410;28;46516;-71
2023/08/05 01:08:32;;;;;;;6.57;4.20;;;16.30;60.00;;;;;;5033978;28;47062;-71
2023/08/05 01:11:00;;;;;;;6.97;4.23;;;16.40;59.50;;;;;;5034492;28;46613;-71
2023/08/05 01:13:25;;;;;;;15.60;5.10;;;16.30;60.00;;;;;;5033013;28;46339;-72
2023/08/05 01:15:51;;;;;;;7.20;5.07;;;16.20;60.10;;;;;;5034512;28;46568;-72
2023/08/05 01:18:18;;;;;;;9.30;5.40;;;16.20;61.00;;;;;;5033089;28;46200;-71
2023/08/05 01:20:52;;;;;;;7.77;4.70;;;16.00;62.00;;;;;;5034407;28;46453;-72
2023/08/05 01:23:40;;;;;;;7.57;4.93;;;16.00;62.20;;;;;;5035108;28;46744;-72
2023/08/05 01:26:08;;;;;;;9.53;5.40;;;16.00;63.10;;;;;;5037104;28;46412;-72
2023/08/05 01:28:37;;;;;;;9.80;5.10;;;16.00;62.70;;;;;;5036654;28;46774;-72
2023/08/05 01:31:04;;;;;;;13.43;5.50;;;16.00;62.90;;;;;;5037241;28;46384;-72
2023/08/05 01:33:30;;;;;;;8.23;5.87;;;16.00;63.30;;;;;;5036004;28;45804;-73
2023/08/05 01:35:55;;;;;;;8.67;5.57;;;15.90;63.10;;;;;;5037961;28;46564;-74
2023/08/05 01:38:21;;;;;;;9.43;5.10;;;15.90;63.30;;;;;;5037723;28;46807;-72
2023/08/05 01:40:47;;;;;;;7.73;5.30;;;16.00;63.30;;;;;;5032194;28;46333;-72
2023/08/05 01:43:12;;;;;;;6.80;4.87;;;16.00;63.70;;;;;;5035267;28;46627;-72
2023/08/05 01:45:38;;;;;;;7.40;4.50;;;15.90;63.60;;;;;;5036764;28;46591;-71
2023/08/05 01:48:04;;;;;;;6.77;4.97;;;15.90;63.80;;;;;;5036330;28;46513;-71
2023/08/05 01:50:29;;;;;;;7.43;4.87;;;15.90;63.90;;;;;;5036367;28;46608;-72
2023/08/05 01:52:55;;;;;;;7.77;4.80;;;15.90;64.00;;;;;;5034974;28;46536;-71
2023/08/05 01:55:21;;;;;;;7.50;4.87;;;15.80;64.40;;;;;;5034300;28;46546;-71
2023/08/05 01:57:46;;;;;;;7.93;4.87;;;15.80;64.60;;;;;;5035663;28;46503;-69
2023/08/05 02:00:12;;;;;;;6.50;4.50;;;15.80;64.90;;;;;;5036212;28;46514;-72
2023/08/05 02:02:38;;;;;;;9.13;4.77;;;15.80;64.70;;;;;;5036322;28;46462;-71
2023/08/05 02:05:04;;;;;;;7.40;4.70;;;15.80;65.00;;;;;;5037019;28;46597;-72
2023/08/05 02:07:29;;;;;;;7.87;4.03;;;15.70;64.90;;;;;;5035961;28;46467;-73
2023/08/05 02:09:55;;;;;;;9.80;4.40;;;15.70;65.00;;;;;;5037952;28;46410;-72
2023/08/05 02:12:21;;;;;;;8.20;4.50;;;15.70;65.20;;;;;;5038627;28;46635;-71
2023/08/05 02:14:46;;;;;;;7.70;4.93;;;15.70;64.80;;;;;;5037885;28;45911;-70
2023/08/05 02:17:12;;;;;;;6.43;4.30;;;15.70;65.20;;;;;;5037416;28;47228;-70
2023/08/05 02:19:37;;;;;;;7.53;3.97;;;15.70;65.80;;;;;;5035261;28;47112;-71
2023/08/05 02:22:03;;;;;;;9.83;4.90;;;15.60;65.80;;;;;;5038690;28;46491;-71
2023/08/05 02:24:28;;;;;;;7.10;4.60;;;15.60;66.30;;;;;;5037012;28;46697;-72
2023/08/05 02:26:54;;;;;;;7.60;4.27;;;15.60;66.30;;;;;;5036427;28;46806;-72
2023/08/05 02:29:20;;;;;;;6.97;4.30;;;15.60;66.20;;;;;;5036809;28;46480;-71
2023/08/05 02:31:45;;;;;;;8.30;4.83;;;15.60;66.10;;;;;;5035469;28;45846;-72
2023/08/05 02:34:11;;;;;;;10.20;5.23;;;15.60;65.90;;;;;;5034792;28;45905;-72
2023/08/05 02:36:37;;;;;;;7.80;4.53;;;15.70;65.80;;;;;;5033497;28;46491;-72
2023/08/05 02:39:02;;;;;;;12.23;5.13;;;15.70;65.30;;;;;;5038513;28;46523;-71
2023/08/05 02:41:28;;;;;;;7.60;4.27;;;15.80;65.30;;;;;;5035441;28;46519;-72
2023/08/05 02:43:54;;;;;;;9.07;4.63;;;15.80;65.20;;;;;;5035344;28;46478;-71
2023/08/05 02:46:19;;;;;;;6.60;4.70;;;15.80;65.20;;;;;;5037059;28;46477;-71
2023/08/05 02:48:45;;;;;;;9.17;4.47;;;15.80;65.00;;;;;;5035886;28;46574;-71
2023/08/05 02:51:11;;;;;;;9.67;4.93;;;15.80;65.20;;;;;;5035863;28;46557;-72
2023/08/05 02:53:36;;;;;;;7.00;4.70;;;15.70;65.10;;;;;;5036596;28;46410;-71
2023/08/05 02:56:02;;;;;;;6.80;4.47;;;15.70;65.10;;;;;;5035274;28;47204;-71
2023/08/05 02:58:28;;;;;;;7.93;5.07;;;15.80;65.00;;;;;;5038224;28;45990;-72
2023/08/05 03:00:54;;;;;;;6.50;4.43;;;15.80;64.70;;;;;;5035460;28;46498;-72
2023/08/05 03:03:19;;;;;;;7.00;4.90;;;15.80;64.80;;;;;;5036126;28;46491;-72
2023/08/05 03:05:45;;;;;;;7.70;4.83;;;15.80;65.10;;;;;;5032935;28;46219;-70
2023/08/05 03:08:10;;;;;;;10.77;5.00;;;15.70;65.20;;;;;;5035877;28;46644;-73
2023/08/05 03:10:39;;;;;;;6.70;4.70;;;15.70;65.10;;;;;;5034691;28;46396;-71
2023/08/05 03:13:04;;;;;;;12.53;5.33;;;15.70;65.30;;;;;;5036442;28;46828;-72
2023/08/05 03:15:30;;;;;;;6.80;4.50;;;15.70;65.50;;;;;;5036287;28;46488;-72
2023/08/05 03:17:56;;;;;;;7.50;5.03;;;15.60;65.20;;;;;;5033609;28;46367;-71
2023/08/05 03:20:27;;;;;;;9.20;5.43;;;15.70;65.10;;;;;;5035478;28;46383;-71
2023/08/05 03:22:54;;;;;;;8.47;5.40;;;15.70;64.90;;;;;;5035242;28;46629;-71
2023/08/05 03:25:26;;;;;;;6.90;4.90;;;15.80;64.70;;;;;;5036540;28;47291;-71
2023/08/05 03:27:52;;;;;;;8.77;4.97;;;15.90;64.20;;;;;;5032880;28;46708;-71
2023/08/05 03:30:18;;;;;;;6.60;4.90;;;15.90;63.80;;;;;;5033233;28;46547;-71
2023/08/05 03:32:47;;;;;;;7.43;4.73;;;16.00;63.80;;;;;;5032923;28;46486;-72
2023/08/05 03:35:12;;;;;;;8.43;5.60;;;15.90;63.80;;;;;;5034615;28;47345;-71
2023/08/05 03:37:38;;;;;;;6.43;4.50;;;15.90;64.00;;;;;;5034647;28;46505;-72
2023/08/05 03:40:04;;;;;;;8.00;4.77;;;15.90;64.00;;;;;;5036576;28;46632;-72
2023/08/05 03:42:30;;;;;;;7.20;4.77;;;15.90;64.00;;;;;;5035037;28;46431;-72
2023/08/05 03:44:56;;;;;;;10.77;5.20;;;16.00;64.00;;;;;;5034554;28;46477;-72
2023/08/05 03:47:22;;;;;;;9.07;5.23;;;16.00;63.80;;;;;;5033364;28;46801;-72
2023/08/05 03:49:47;;;;;;;11.00;5.67;;;16.00;63.70;;;;;;5035095;28;46415;-71
2023/08/05 03:52:13;;;;;;;7.60;4.90;;;16.00;63.60;;;;;;5034664;28;46396;-71
2023/08/05 03:54:39;;;;;;;7.67;4.97;;;16.00;63.70;;;;;;5034552;28;47425;-73
2023/08/05 03:57:08;;;;;;;8.50;5.20;;;16.00;63.80;;;;;;5034894;28;45956;-71
2023/08/05 03:59:34;;;;;;;8.23;5.30;;;15.90;64.00;;;;;;5034619;28;46264;-70
2023/08/05 04:02:00;;;;;;;7.80;5.63;;;15.90;64.30;;;;;;5034834;28;46819;-71
2023/08/05 04:04:26;;;;;;;7.33;5.00;;;15.80;64.20;;;;;;5036031;28;47304;-71
2023/08/05 04:06:51;;;;;;;7.40;4.70;;;15.90;65.10;;;;;;5035408;28;46473;-71
2023/08/05 04:09:19;;;;;;;7.80;5.40;;;15.80;64.20;;;;;;5035898;28;46516;-72
2023/08/05 04:11:45;;;;;;;8.10;5.50;;;15.80;64.40;;;;;;5034555;28;46838;-72
2023/08/05 04:14:11;;;;;;;8.60;5.23;;;15.70;64.50;;;;;;5040480;28;47002;-68
2023/08/05 04:16:37;;;;;;;8.83;5.10;;;15.70;64.80;;;;;;5041731;28;46413;-68
2023/08/05 04:19:03;;;;;;;7.93;5.27;;;15.70;64.70;;;;;;5040570;28;46626;-68
2023/08/05 04:21:35;;;;;;;10.10;5.30;;;15.70;64.70;;;;;;5041907;28;46474;-68
2023/08/05 04:24:01;;;;;;;12.00;5.00;;;15.70;64.90;;;;;;5041343;28;46340;-68
2023/08/05 04:26:27;;;;;;;10.40;6.03;;;15.60;64.90;;;;;;5041978;28;46430;-68
2023/08/05 04:28:53;;;;;;;8.50;5.27;;;15.60;64.80;;;;;;5041845;28;46729;-69
2023/08/05 04:31:18;;;;;;;11.23;5.63;;;15.60;65.00;;;;;;5041913;28;46467;-68
2023/08/05 04:33:46;;;;;;;8.10;5.63;;;15.70;64.90;;;;;;5041421;28;46458;-68
2023/08/05 04:36:12;;;;;;;8.87;5.90;;;15.70;64.80;;;;;;5041170;28;46524;-68
2023/08/05 04:38:37;;;;;;;8.53;5.53;;;15.70;65.90;;;;;;5041610;28;46478;-68
2023/08/05 04:41:03;;;;;;;8.50;6.20;;;15.70;64.70;;;;;;5057072;28;46384;-68
2023/08/05 04:43:29;;;;;;;9.73;5.50;;;15.70;64.70;;;;;;5047273;28;46729;-68
2023/08/05 04:45:54;;;;;;;10.80;5.87;;;15.70;64.80;;;;;;5061642;28;46435;-68
2023/08/05 04:48:20;;;;;;;9.07;5.77;;;15.70;64.80;;;;;;5061766;28;46391;-68
2023/08/05 04:50:46;;;;;;;10.27;6.13;;;15.70;64.60;;;;;;5061654;28;45842;-68
2023/08/05 04:53:16;;;;;;;12.70;7.60;;;15.80;64.40;;;;;;5060012;28;47632;-68
2023/08/05 04:55:42;;;;;;;9.37;6.40;;;15.80;64.30;;;;;;5061777;28;46453;-66
2023/08/05 04:58:08;;;;;;;14.20;6.13;;;15.90;64.10;;;;;;5061505;28;46396;-68
2023/08/05 05:00:34;;;;;;;9.10;5.10;;;15.90;65.40;;;;;;5065039;28;46410;-68
2023/08/05 05:03:00;;;;;;;10.57;6.33;;;15.90;64.10;;;;;;5064994;28;46392;-68
2023/08/05 05:05:25;;;;;;;12.40;6.93;;;15.90;64.00;;;;;;5065209;28;46441;-68
2023/08/05 05:07:51;;;;;;;10.50;6.47;;;15.90;64.10;;;;;;5064681;28;45795;-67
2023/08/05 05:10:17;;;;;;;11.23;6.90;;;15.90;64.10;;;;;;5065176;28;46681;-67
2023/08/05 05:12:42;;;;;;;8.67;5.80;;;15.90;63.90;;;;;;5064452;28;47255;-68
2023/08/05 05:15:08;;;;;;;19.00;6.40;;;15.90;64.00;;;;;;5065124;28;46145;-68
2023/08/05 05:17:35;;;;;;;8.73;6.13;;;15.90;64.10;;;;;;5065114;28;46452;-68
2023/08/05 05:20:02;;;;;;;11.40;6.03;;;16.00;64.10;;;;;;5065007;28;46564;-68
2023/08/05 05:22:28;;;;;;;11.27;6.93;;;16.00;64.10;;;;;;5064352;28;47383;-68
2023/08/05 05:24:54;;;;;;;9.43;6.10;;;16.10;63.90;;;;;;5064543;28;46769;-68
2023/08/05 05:27:19;;;;;;;12.73;6.30;;;16.10;63.70;;;;;;5065190;28;46364;-68
2023/08/05 05:29:45;;;;;;;11.77;6.70;;;16.10;63.50;;;;;;5064875;28;46319;-68
2023/08/05 05:32:11;;;;;;;16.20;6.97;;;16.00;63.70;;;;;;5064506;28;46411;-68
2023/08/05 05:34:36;;;;;;;8.23;6.30;;;16.00;64.10;;;;;;5064136;28;46438;-68
2023/08/05 05:37:02;;;;;;;13.53;6.63;;;16.00;64.00;;;;;;5064707;28;46447;-68
2023/08/05 05:39:28;;;;;;;7.93;6.10;;;16.10;63.90;;;;;;5041189;27;46692;-69
2023/08/05 05:41:55;;;;;;;14.00;7.70;;;16.10;63.70;;;;;;5044009;28;47016;-68
2023/08/05 05:44:22;;;;;;;8.30;6.30;;;16.20;63.60;;;;;;5043948;28;46503;-68
2023/08/05 05:46:47;;;;;;;9.27;6.87;;;16.20;63.60;;;;;;5047072;28;46423;-68
2023/08/05 05:49:14;;;;;;;15.80;6.30;;;16.10;63.60;;;;;;5045954;28;46382;-68
2023/08/05 05:51:42;;;;;;;10.80;6.53;;;16.20;63.50;;;;;;5044309;28;46390;-68
2023/08/05 05:54:08;;;;;;;11.33;7.20;;;16.30;63.20;;;;;;5042423;28;46477;-68
2023/08/05 05:56:34;;;;;;;11.93;6.40;;;16.40;63.20;;;;;;5042296;28;46256;-68
2023/08/05 05:58:59;;;;;;;12.77;6.60;;;16.50;64.10;;;;;;5044513;28;45839;-67
2023/08/05 06:01:25;;;;;;;12.53;7.23;;;16.60;62.60;;;;;;5043564;28;46469;-69
2023/08/05 06:03:50;;;;;;;11.30;6.87;;;16.70;62.30;;;;;;5043806;28;46449;-68
2023/08/05 06:06:16;;;;;;;15.60;7.70;;;16.70;62.00;;;;;;5044154;28;46455;-68
2023/08/05 06:08:42;;;;;;;16.60;7.47;;;16.80;61.80;;;;;;5048507;22;46409;-72
2023/08/05 06:11:08;;;;;;;12.60;7.17;;;16.90;61.70;;;;;;5016274;28;48619;-71
2023/08/05 06:13:35;;;;;;;9.07;6.53;;;17.00;61.60;;;;;;5020499;28;46392;-71
2023/08/05 06:16:03;;;;;;;9.50;6.93;;;17.10;61.30;;;;;;5018718;28;46487;-71
2023/08/05 06:18:29;;;;;;;9.47;6.70;;;17.20;60.90;;;;;;5009000;28;46681;-71
2023/08/05 06:20:54;;;;;;;13.10;7.37;;;17.20;61.00;;;;;;5019893;28;48059;-72
2023/08/05 06:23:21;;;;;;;10.17;6.63;;;17.20;61.10;;;;;;5016823;28;46504;-72
2023/08/05 06:25:46;;;;;;;14.57;6.97;;;17.30;61.00;;;;;;5018320;28;46668;-71
2023/08/05 06:28:12;;;;;;;22.43;6.50;;;17.30;60.80;;;;;;5020365;28;46548;-72
2023/08/05 06:30:45;;;;;;;8.10;6.20;;;17.30;61.20;;;;;;5022735;28;47891;-72
2023/08/05 06:33:11;;;;;;;9.23;6.30;;;17.20;61.10;;;;;;5013074;28;46699;-72
2023/08/05 06:35:37;;;;;;;16.70;6.60;;;17.30;60.80;;;;;;5014474;28;46410;-72
2023/08/05 06:38:03;;;;;;;10.27;6.77;;;17.30;60.90;;;;;;5017933;28;46434;-72
2023/08/05 06:40:28;;;;;;;11.83;6.97;;;17.30;60.80;;;;;;5017717;28;47737;-71
2023/08/05 06:42:56;;;;;;;9.43;5.90;;;17.30;60.90;;;;;;5016970;28;46654;-72
2023/08/05 06:45:21;;;;;;;8.87;6.50;;;17.30;60.60;;;;;;5018111;28;46499;-72
2023/08/05 06:47:47;;;;;;;12.03;6.40;;;17.50;60.30;;;;;;5018283;28;46437;-71
2023/08/05 06:50:13;;;;;;;8.93;5.67;;;17.50;60.10;;;;;;5016100;28;47824;-72
2023/08/05 06:52:39;;;;;;;8.50;5.63;;;17.40;60.10;;;;;;5014331;28;46444;-71
2023/08/05 06:55:04;;;;;;;8.73;6.40;;;17.30;60.20;;;;;;5013037;28;46550;-72
2023/08/05 06:57:31;;;;;;;9.43;6.83;;;17.20;60.40;;;;;;5017642;28;46359;-72
2023/08/05 06:59:58;;;;;;;8.83;5.77;;;17.30;60.00;;;;;;5015435;28;47875;-71
2023/08/05 07:02:25;;;;;;;12.97;6.17;;;17.40;59.70;;;;;;5029055;28;46392;-72
2023/08/05 07:04:52;;;;;;;8.43;5.40;;;17.40;59.70;;;;;;5017793;28;46480;-71
2023/08/05 07:07:17;;;;;;;8.57;6.10;;;17.10;60.00;;;;;;5017090;28;46646;-72
2023/08/05 07:09:43;;;;;;;11.63;5.90;;;17.00;60.50;;;;;;5017219;28;48004;-71
2023/08/05 07:12:09;;;;;;;9.37;5.40;;;17.00;60.50;;;;;;5010638;28;46599;-72
2023/08/05 07:14:35;;;;;;;9.17;5.33;;;17.10;60.00;;;;;;5015682;28;46379;-71
2023/08/05 07:17:00;;;;;;;13.43;5.47;;;17.10;60.00;;;;;;5015802;28;46753;-72
2023/08/05 07:19:26;;;;;;;10.43;6.03;;;17.20;59.90;;;;;;5013962;28;49023;-72
2023/08/05 07:21:52;;;;;;;12.63;6.20;;;17.50;59.30;;;;;;5016144;28;46491;-71
2023/08/05 07:24:21;;;;;;;7.43;5.60;;;17.50;58.70;;;;;;5015701;28;46510;-71
2023/08/05 07:26:46;;;;;;;9.33;5.53;;;17.50;58.60;;;;;;5016361;28;46508;-73
2023/08/05 07:29:12;;;;;;;8.10;5.37;;;17.70;58.80;;;;;;5017049;28;48073;-71
2023/08/05 07:31:38;;;;;;;8.20;5.00;;;17.90;58.90;;;;;;5016737;28;46700;-72
2023/08/05 07:34:08;;;;;;;8.83;4.97;;;17.90;58.40;;;;;;5017219;28;46504;-71
2023/08/05 07:36:33;;;;;;;11.00;4.93;;;17.70;58.80;;;;;;5015759;28;46625;-72
2023/08/05 07:39:02;;;;;;;14.83;5.00;;;17.80;58.80;;;;;;5014380;28;47830;-71
2023/08/05 07:41:30;;;;;;;7.87;4.90;;;17.90;58.10;;;;;;5008534;28;46554;-70
2023/08/05 07:43:58;;;;;;;11.50;5.10;;;17.90;59.60;;;;;;5017743;28;46422;-72
2023/08/05 07:46:31;;;;;;;10.13;5.20;;;17.90;58.10;;;;;;5012828;28;46631;-71
2023/08/05 07:48:59;;;;;;;6.87;5.07;;;17.90;57.70;;;;;;5012828;28;48644;-71
2023/08/05 07:51:25;;;;;;;11.87;6.00;;;18.00;57.70;;;;;;5013632;28;46552;-71
2023/08/05 07:53:53;;;;;;;7.00;5.10;;;18.20;57.10;;;;;;5013065;28;46413;-71
2023/08/05 07:56:19;;;;;;;9.53;4.83;;;18.40;56.90;;;;;;5013906;28;46437;-71
2023/08/05 07:58:46;;;;;;;10.07;5.33;;;18.50;56.70;;;;;;5015926;28;46533;-71
2023/08/05 08:01:22;;;;;;;9.67;5.60;;;18.60;56.10;;;;;;5011798;28;46434;-71
2023/08/05 08:03:53;;;;;;;9.77;5.87;;;18.70;56.00;;;;;;5018114;28;46412;-71
2023/08/05 08:06:19;;;;;;;7.80;5.30;;;18.90;55.50;;;;;;5010158;28;45932;-72
2023/08/05 08:08:46;;;;;;;7.73;5.30;;;19.10;55.30;;;;;;5012064;28;46467;-72
2023/08/05 08:11:13;;;;;;;9.07;5.10;;;19.30;54.70;;;;;;5014712;28;46573;-70
2023/08/05 08:13:39;;;;;;;9.30;5.00;;;19.30;54.70;;;;;;5012710;28;46468;-71
2023/08/05 08:16:06;;;;;;;9.90;4.57;;;19.50;54.50;;;;;;5012589;28;46523;-73
2023/08/05 08:18:32;;;;;;;8.30;4.93;;;19.60;53.90;;;;;;5007516;28;46545;-71
2023/08/05 08:20:58;;;;;;;8.83;4.77;;;19.80;53.80;;;;;;5011886;28;46758;-72
2023/08/05 08:23:24;;;;;;;8.87;4.73;;;19.80;53.00;;;;;;5015661;28;46456;-72
2023/08/05 08:25:50;;;;;;;12.73;5.20;;;19.70;52.70;;;;;;5014174;28;46450;-72
2023/08/05 08:28:16;;;;;;;9.03;4.90;;;19.60;53.10;;;;;;5014821;28;47718;-72
2023/08/05 08:30:55;;;;;;;10.43;4.37;;;19.50;51.30;;;;;;5013709;28;46713;-73
2023/08/05 08:33:23;;;;;;;13.70;4.40;;;19.50;49.10;;;;;;5015352;28;45873;-72
2023/08/05 08:35:49;;;;;;;6.47;4.37;;;19.60;48.70;;;;;;5012336;28;46531;-72
2023/08/05 08:38:16;;;;;;;6.87;4.10;;;19.80;47.50;;;;;;5013442;28;47671;-71
2023/08/05 08:40:49;;;;;;;9.20;4.57;;;20.10;47.30;;;;;;5012053;28;46433;-72
2023/08/05 08:43:20;;;;;;;10.60;4.57;;;20.60;45.10;;;;;;5009381;28;46610;-72
2023/08/05 08:45:48;;;;;;;10.00;5.10;;;20.70;42.60;;;;;;5008203;28;46621;-72
2023/08/05 08:48:15;;;;;;;8.60;4.20;;;20.60;43.20;;;;;;5012952;28;48204;-72
2023/08/05 08:50:42;;;;;;;8.43;4.50;;;20.80;42.80;;;;;;5015282;28;46501;-72
2023/08/05 08:53:10;;;;;;;9.70;4.60;;;20.90;41.90;;;;;;5007980;28;46482;-72
2023/08/05 08:55:37;;;;;;;9.57;3.47;;;21.00;41.90;;;;;;5014552;28;46544;-71
2023/08/05 08:58:02;;;;;;;9.03;4.63;;;21.00;40.50;;;;;;5016808;28;47195;-71
2023/08/05 09:00:30;;;;;;;8.07;3.93;;;20.60;39.70;;;;;;5017354;28;45882;-72
2023/08/05 09:02:56;;;;;;;7.23;4.37;;;20.50;40.10;;;;;;5012574;28;46330;-71
2023/08/05 09:05:22;;;;;;;7.63;4.20;;;20.40;40.00;;;;;;5012991;28;45911;-71
2023/08/05 09:07:49;;;;;;;6.97;4.00;;;20.50;40.00;;;;;;5018428;28;48045;-71
2023/08/05 09:10:15;;;;;;;7.40;4.20;;;20.30;40.70;;;;;;5015511;28;46510;-71
2023/08/05 09:12:42;;;;;;;7.87;4.10;;;20.50;40.50;;;;;;5013455;28;46387;-72
2023/08/05 09:15:08;;;;;;;8.10;4.30;;;20.60;40.40;;;;;;5014205;28;46805;-72
2023/08/05 09:17:40;;;;;;;6.20;3.83;;;20.80;38.80;;;;;;5017811;28;46687;-72
2023/08/05 09:20:16;;;;;;;9.77;3.87;;;20.90;38.20;;;;;;5010993;28;46377;-72
2023/08/05 09:22:54;;;;;;;6.00;4.13;;;20.90;37.30;;;;;;5013273;28;46331;-72
2023/08/05 09:25:19;;;;;;;7.00;4.10;;;21.10;37.30;;;;;;5017196;28;46426;-72
2023/08/05 09:27:53;;;;;;;8.80;3.80;;;21.30;36.00;;;;;;5011523;28;47614;-72
2023/08/05 09:30:21;;;;;;;6.53;4.00;;;21.50;36.20;;;;;;5010077;28;46577;-72
2023/08/05 09:32:47;;;;;;;6.77;3.53;;;21.90;35.80;;;;;;5015314;28;46179;-71
2023/08/05 09:35:14;;;;;;;8.73;3.53;;;22.00;34.60;;;;;;5000233;28;46568;-72
2023/08/05 09:37:44;;;;;;;4.90;3.30;;;21.80;33.60;;;;;;5008113;28;47855;-71
2023/08/05 09:40:17;;;;;;;8.47;4.13;;;21.70;34.20;;;;;;5006262;28;46531;-72
2023/08/05 09:42:51;;;;;;;8.17;3.77;;;21.50;33.30;;;;;;5007148;28;46523;-73
2023/08/05 09:45:18;;;;;;;6.67;3.27;;;21.20;33.50;;;;;;5016585;28;46521;-72
2023/08/05 09:47:49;;;;;;;9.63;4.30;;;21.10;34.50;;;;;;5026708;28;47785;-71
2023/08/05 09:50:17;;;;;;;6.90;4.00;;;21.10;34.30;;;;;;5018094;28;46480;-72
2023/08/05 09:52:43;;;;;;;6.43;3.80;;;21.20;34.50;;;;;;5013960;28;46474;-72
2023/08/05 09:55:13;;;;;;;13.60;3.70;;;21.40;33.90;;;;;;5012240;28;46475;-72
2023/08/05 09:57:40;;;;;;;10.53;3.20;;;21.40;34.40;;;;;;5016581;28;47760;-71
2023/08/05 10:00:12;;;;;;;6.73;3.43;;;21.50;34.00;;;;;;5014561;28;46504;-72
2023/08/05 10:02:43;;;;;;;6.07;3.50;;;21.70;33.30;;;;;;5019259;28;46329;-71
2023/08/05 10:05:10;;;;;;;7.57;3.50;;;21.50;32.60;;;;;;5013417;28;46409;-71
2023/08/05 10:07:41;;;;;;;6.87;3.87;;;21.30;32.10;;;;;;5016680;28;48995;-71
2023/08/05 10:10:16;;;;;;;4.43;3.07;;;21.40;32.70;;;;;;5014496;28;46503;-70
2023/08/05 10:12:47;;;;;;;8.50;3.10;;;21.80;32.20;;;;;;5027503;28;46361;-72
2023/08/05 10:15:22;;;;;;;8.40;2.97;;;22.20;31.10;;;;;;5012513;28;46388;-71
2023/08/05 10:17:48;;;;;;;6.90;2.80;;;22.40;30.20;;;;;;5010460;28;49169;-71
2023/08/05 10:20:14;;;;;;;5.83;3.07;;;22.70;29.80;;;;;;5010752;28;46435;-71
2023/08/05 10:22:40;;;;;;;7.53;2.80;;;22.70;29.30;;;;;;5017667;28;46184;-72
2023/08/05 10:25:07;;;;;;;5.47;3.07;;;22.70;29.30;;;;;;5015749;28;46482;-72
2023/08/05 10:27:43;;;;;;;5.90;3.23;;;23.20;28.50;;;;;;5012464;28;46479;-71
2023/08/05 10:30:16;;;;;;;5.40;3.30;;;23.00;27.20;;;;;;5010824;28;46742;-71
2023/08/05 10:32:56;;;;;;;6.93;3.30;;;23.00;26.90;;;;;;5008386;28;46534;-71
2023/08/05 10:35:39;;;;;;;6.50;2.80;;;23.20;26.70;;;;;;5025202;28;46339;-70
2023/08/05 10:38:21;;;;;;;5.23;3.20;;;23.10;26.00;;;;;;5018078;28;46477;-71
2023/08/05 10:40:50;;;;;;;11.53;2.93;;;23.40;26.10;;;;;;5011559;28;46613;-71
2023/08/05 10:43:30;;;;;;;9.77;3.40;;;23.60;25.70;;;;;;5007909;28;46363;-71
2023/08/05 10:46:09;;;;;;;7.50;2.73;;;23.50;25.70;;;;;;5010639;28;46631;-71
2023/08/05 10:48:35;;;;;;;6.30;2.83;;;23.30;26.30;;;;;;5011273;28;49076;-71
2023/08/05 10:51:15;;;;;;;5.90;3.00;;;23.00;27.00;;;;;;5009094;28;46311;-70
2023/08/05 10:53:59;;;;;;;5.77;2.63;;;22.70;27.20;;;;;;5016912;28;46424;-71
2023/08/05 10:56:35;;;;;;;9.70;3.10;;;22.40;27.80;;;;;;5012267;28;46511;-71
2023/08/05 10:59:02;;;;;;;8.73;3.53;;;22.10;28.00;;;;;;5008006;28;46386;-72
2023/08/05 11:01:56;;;;;;;10.53;2.70;;;22.20;28.10;;;;;;5017033;28;46612;-71
2023/08/05 11:04:32;;;;;;;5.40;2.77;;;22.40;27.50;;;;;;5010509;28;46631;-71
2023/08/05 11:07:00;;;;;;;6.80;2.80;;;22.20;27.70;;;;;;5010113;28;46402;-71
2023/08/05 11:09:26;;;;;;;7.00;2.53;;;22.20;27.80;;;;;;5013664;28;47991;-71
2023/08/05 11:11:52;;;;;;;7.87;3.03;;;22.20;27.90;;;;;;5010708;28;46343;-72
2023/08/05 11:14:19;;;;;;;4.53;2.70;;;22.30;27.90;;;;;;5015052;28;46135;-72
2023/08/05 11:16:48;;;;;;;6.73;3.20;;;22.10;27.50;;;;;;5011089;28;46553;-72
2023/08/05 11:19:17;;;;;;;7.97;3.40;;;22.00;28.00;;;;;;5022349;28;48678;-71
2023/08/05 11:21:46;;;;;;;7.17;3.60;;;22.00;28.30;;;;;;5014128;28;46540;-72
2023/08/05 11:24:18;;;;;;;7.10;3.23;;;21.90;28.50;;;;;;5007846;28;46451;-72
2023/08/05 11:26:46;;;;;;;7.97;3.37;;;21.70;29.10;;;;;;5009447;28;46316;-73
2023/08/05 11:29:14;;;;;;;4.80;2.83;;;21.70;29.30;;;;;;5010017;28;46500;-71
2023/08/05 11:31:49;;;;;;;6.23;2.53;;;21.40;29.30;;;;;;5016276;28;46565;-73
2023/08/05 11:34:22;;;;;;;11.73;4.10;;;21.40;29.50;;;;;;5007484;28;46386;-72
2023/08/05 11:36:55;;;;;;;5.37;3.37;;;21.70;29.00;;;;;;5011284;28;46807;-72
2023/08/05 11:39:24;;;;;;;8.50;3.40;;;21.90;28.60;;;;;;5008586;28;46668;-73
2023/08/05 11:41:51;;;;;;;6.33;2.97;;;21.90;28.10;;;;;;5010313;28;46441;-72
2023/08/05 11:44:18;;;;;;;5.60;2.90;;;21.90;28.10;;;;;;5008831;28;46434;-72
2023/08/05 11:46:43;;;;;;;4.67;2.77;;;22.30;27.50;;;;;;5011579;28;46390;-72
2023/08/05 11:49:11;;;;;;;6.43;2.70;;;22.60;27.10;;;;;;5014404;28;46338;-72
2023/08/05 11:51:52;;;;;;;8.30;3.20;;;22.70;26.70;;;;;;5014365;28;46418;-71
2023/08/05 11:54:26;;;;;;;4.60;2.30;;;23.10;26.00;;;;;;5008842;28;46505;-71
2023/08/05 11:56:52;;;;;;;6.47;3.40;;;23.10;25.80;;;;;;5009515;28;46359;-72
2023/08/05 11:59:45;;;;;;;4.53;2.40;;;23.20;25.60;;;;;;5013054;28;46490;-72
2023/08/05 12:02:12;;;;;;;6.50;2.90;;;23.40;24.80;;;;;;5023720;28;46380;-71
2023/08/05 12:04:56;;;;;;;5.17;2.60;;;23.30;25.30;;;;;;5016598;28;46399;-73
2023/08/05 12:07:22;;;;;;;6.30;2.63;;;23.30;24.80;;;;;;5009748;28;46438;-72
2023/08/05 12:10:04;;;;;;;6.27;2.80;;;23.40;25.00;;;;;;5014642;28;48938;-72
2023/08/05 12:12:31;;;;;;;5.60;2.53;;;23.40;24.80;;;;;;5006080;28;46439;-73
2023/08/05 12:15:24;;;;;;;6.20;2.40;;;23.40;24.80;;;;;;5001470;28;46358;-73
2023/08/05 12:17:54;;;;;;;7.20;2.30;;;23.60;25.00;;;;;;5008573;28;47349;-73
2023/08/05 12:20:21;;;;;;;5.00;2.40;;;23.50;24.90;;;;;;5007401;28;47966;-73
2023/08/05 12:22:48;;;;;;;5.07;2.30;;;23.70;25.10;;;;;;5007378;28;46378;-73
2023/08/05 12:25:15;;;;;;;4.30;2.50;;;23.50;24.10;;;;;;5007033;28;46287;-72
2023/08/05 12:27:41;;;;;;;5.00;2.47;;;23.40;24.60;;;;;;5011606;28;46440;-73
2023/08/05 12:30:08;;;;;;;4.77;2.30;;;23.50;25.10;;;;;;5015371;28;47805;-73
2023/08/05 12:32:34;;;;;;;4.40;2.40;;;23.20;23.50;;;;;;5008338;28;46306;-73
2023/08/05 12:35:05;;;;;;;6.40;2.70;;;22.70;23.80;;;;;;5009367;28;46436;-72
2023/08/05 12:37:33;;;;;;;4.87;2.70;;;22.50;24.20;;;;;;5009971;28;46669;-73
2023/08/05 12:40:00;;;;;;;7.10;3.20;;;22.60;24.00;;;;;;5011759;28;47941;-73
2023/08/05 12:42:26;;;;;;;11.60;3.90;;;22.40;24.10;;;;;;5013824;28;46542;-73
2023/08/05 12:44:51;;;;;;;6.10;3.17;;;22.30;24.10;;;;;;5009435;28;46464;-73
2023/08/05 12:47:18;;;;;;;5.20;2.60;;;22.20;24.00;;;;;;5016219;28;46785;-71